createdAt,value
2023-05-08T00:03:53.936Z,65.43
2023-05-08T00:08:56.155Z,65.68
2023-05-08T00:13:57.968Z,65.69
2023-05-08T00:19:00.652Z,65.71
2023-05-08T00:24:02.521Z,65.55
2023-05-08T00:29:06.511Z,65.45
2023-05-08T00:34:08.963Z,65.40
2023-05-08T00:39:10.794Z,65.34
2023-05-08T00:44:12.640Z,65.35
2023-05-08T00:49:16.074Z,65.56
2023-05-08T00:54:18.347Z,65.35
2023-05-08T00:59:22.889Z,65.32
2023-05-08T01:04:25.365Z,65.40
2023-05-08T01:09:27.283Z,65.55
2023-05-08T01:14:55.193Z,65.73
2023-05-08T01:20:36.884Z,65.77
2023-05-08T01:26:03.374Z,65.63
2023-05-08T01:31:21.931Z,65.64
2023-05-08T01:36:32.065Z,65.78
2023-05-08T01:41:37.005Z,65.86
2023-05-08T01:46:39.027Z,65.78
2023-05-08T01:51:46.023Z,65.63
2023-05-08T01:56:50.415Z,65.53
2023-05-08T02:01:57.062Z,65.70
2023-05-08T02:07:01.128Z,65.66
2023-05-08T02:12:06.791Z,65.79
2023-05-08T02:17:10.586Z,65.86
2023-05-08T02:22:14.051Z,65.68
2023-05-08T02:27:16.887Z,65.87
2023-05-08T02:32:20.953Z,65.73
2023-05-08T02:37:24.306Z,65.65
2023-05-08T02:42:26.520Z,65.75
2023-05-08T02:47:40.125Z,65.76
2023-05-08T02:52:49.714Z,65.88
2023-05-08T02:57:54.510Z,65.88
2023-05-08T03:03:01.586Z,65.87
2023-05-08T03:08:08.136Z,65.59
2023-05-08T03:13:12.470Z,65.83
2023-05-08T03:18:21.231Z,65.73
2023-05-08T03:23:26.516Z,65.61
2023-05-08T03:28:30.628Z,65.58
2023-05-08T03:33:37.267Z,65.42
2023-05-08T03:38:39.684Z,65.48
2023-05-08T03:43:44.050Z,65.55
2023-05-08T03:48:47.509Z,65.55
2023-05-08T03:53:49.717Z,65.44
2023-05-08T03:59:21.744Z,65.55
2023-05-08T04:04:39.999Z,65.33
2023-05-08T04:09:53.436Z,65.15
2023-05-08T04:15:01.487Z,65.20
2023-05-08T04:20:07.156Z,65.09
2023-05-08T04:25:11.783Z,65.36
2023-05-08T04:30:15.193Z,65.41
2023-05-08T04:35:18.333Z,65.60
2023-05-08T04:40:21.368Z,65.48
2023-05-08T04:45:23.409Z,65.55
2023-05-08T04:50:25.839Z,65.49
2023-05-08T04:55:28.104Z,65.55
2023-05-08T05:00:30.676Z,65.64
2023-05-08T05:05:36.421Z,65.69
2023-05-08T05:10:40.832Z,65.86
2023-05-08T05:15:43.770Z,65.68
2023-05-08T05:20:46.469Z,65.63
2023-05-08T05:25:49.199Z,65.75
2023-05-08T05:30:51.819Z,65.75
2023-05-08T05:35:53.727Z,65.83
2023-05-08T05:40:55.688Z,65.80
2023-05-08T05:46:07.501Z,65.90
2023-05-08T05:51:10.070Z,65.72
2023-05-08T05:56:12.102Z,65.71
2023-05-08T06:01:14.056Z,65.65
2023-05-08T06:06:16.023Z,65.75
2023-05-08T06:11:17.919Z,65.77
2023-05-08T06:16:24.508Z,65.75
2023-05-08T06:21:26.860Z,65.81
2023-05-08T06:26:28.788Z,65.86
2023-05-08T06:31:30.709Z,65.70
2023-05-08T06:36:32.821Z,65.62
2023-05-08T06:41:34.688Z,65.29
2023-05-08T06:46:36.527Z,65.10
2023-05-08T06:51:39.547Z,64.83
2023-05-08T06:56:44.762Z,64.24
2023-05-08T07:01:46.620Z,63.95
2023-05-08T07:06:48.453Z,63.61
2023-05-08T07:11:50.301Z,63.29
2023-05-08T07:16:52.040Z,62.98
2023-05-08T07:21:54.871Z,62.54
2023-05-08T07:26:56.917Z,62.03
2023-05-08T07:31:58.839Z,61.60
2023-05-08T07:37:00.761Z,61.77
2023-05-08T07:42:06.089Z,61.37
2023-05-08T07:47:07.968Z,61.26
2023-05-08T07:52:10.074Z,61.06
2023-05-08T07:57:11.936Z,60.68
2023-05-08T08:02:14.558Z,60.33
2023-05-08T08:07:16.814Z,60.33
2023-05-08T08:12:18.732Z,59.98
2023-05-08T08:17:20.758Z,59.72
2023-05-08T08:22:23.071Z,59.28
2023-05-08T08:27:25.129Z,59.04
2023-05-08T08:32:27.014Z,58.85
2023-05-08T08:37:29.386Z,58.52
2023-05-08T08:42:31.725Z,57.78
2023-05-08T08:47:41.562Z,57.26
2023-05-08T08:53:01.308Z,57.01
2023-05-08T08:58:24.256Z,56.76
2023-05-08T09:03:27.083Z,56.45
2023-05-08T09:08:29.217Z,55.91
2023-05-08T09:13:31.307Z,55.34
2023-05-08T09:18:33.649Z,54.87
2023-05-08T09:23:59.305Z,53.88
2023-05-08T09:29:18.848Z,53.51
2023-05-08T09:34:28.134Z,53.28
2023-05-08T09:39:30.077Z,52.80
2023-05-08T09:44:51.855Z,51.77
2023-05-08T09:49:57.054Z,52.02
2023-05-08T09:55:03.988Z,50.84
2023-05-08T10:00:06.414Z,50.53
2023-05-08T10:05:32.915Z,49.48
2023-05-08T10:10:37.049Z,49.48
2023-05-08T10:15:42.429Z,48.90
2023-05-08T10:20:48.910Z,48.63
2023-05-08T10:26:02.696Z,46.64
2023-05-08T10:31:07.420Z,46.15
2023-05-08T10:36:10.300Z,46.05
2023-05-08T10:41:13.455Z,45.78
2023-05-08T10:46:56.644Z,43.98
2023-05-08T10:52:12.927Z,43.75
2023-05-08T10:57:15.714Z,43.87
2023-05-08T11:02:28.938Z,42.06
2023-05-08T11:07:57.424Z,41.94
2023-05-08T11:13:00.250Z,42.33
2023-05-08T11:18:05.088Z,42.00
2023-05-08T11:23:27.435Z,41.45
2023-05-08T11:28:58.706Z,41.36
2023-05-08T11:34:00.585Z,41.01
2023-05-08T11:39:07.904Z,40.77
2023-05-08T11:44:20.125Z,40.25
2023-05-08T11:49:27.404Z,39.55
2023-05-08T11:54:32.056Z,38.74
2023-05-08T11:59:37.658Z,38.21
2023-05-08T12:04:48.199Z,38.26
2023-05-08T12:09:50.356Z,38.68
2023-05-08T12:14:52.241Z,38.08
2023-05-08T12:19:59.090Z,37.26
2023-05-08T12:25:04.784Z,36.88
2023-05-08T12:30:09.343Z,36.67
2023-05-08T12:35:12.858Z,37.23
2023-05-08T12:40:46.733Z,36.97
2023-05-08T12:45:54.108Z,36.97
2023-05-08T12:51:02.462Z,36.28
2023-05-08T12:56:05.018Z,36.29
2023-05-08T13:01:13.719Z,36.16
2023-05-08T13:06:22.512Z,37.04
2023-05-08T13:11:33.305Z,36.38
2023-05-08T13:16:46.136Z,36.62
2023-05-08T13:21:48.217Z,36.88
2023-05-08T13:26:50.140Z,36.65
2023-05-08T13:31:52.235Z,36.86
2023-05-08T13:36:54.260Z,36.87
2023-05-08T13:41:56.095Z,36.45
2023-05-08T13:46:58.043Z,36.15
2023-05-08T13:51:59.884Z,36.34
2023-05-08T13:57:02.807Z,35.97
2023-05-08T14:02:04.679Z,35.70
2023-05-08T14:07:06.989Z,35.34
2023-05-08T14:12:09.296Z,34.87
2023-05-08T14:17:11.440Z,34.63
2023-05-08T14:22:13.249Z,34.38
2023-05-08T14:27:15.217Z,34.27
2023-05-08T14:32:17.013Z,34.39
2023-05-08T14:37:18.850Z,34.62
2023-05-08T14:42:23.635Z,33.95
2023-05-08T14:47:26.117Z,33.98
2023-05-08T14:52:27.987Z,33.62
2023-05-08T14:57:29.969Z,33.50
2023-05-08T15:02:31.991Z,33.22
2023-05-08T15:07:34.869Z,33.48
2023-05-08T15:12:36.853Z,33.96
2023-05-08T15:17:41.538Z,35.84
2023-05-08T15:22:43.742Z,37.29
2023-05-08T15:27:46.085Z,38.23
2023-05-08T15:32:48.761Z,39.41
2023-05-08T15:37:50.961Z,40.10
2023-05-08T15:42:52.732Z,40.21
2023-05-08T15:47:54.581Z,40.69
2023-05-08T15:52:56.362Z,41.08
2023-05-08T15:57:58.107Z,41.26
2023-05-08T16:03:00.269Z,41.74
2023-05-08T16:08:02.381Z,41.93
2023-05-08T16:13:04.346Z,42.16
2023-05-08T16:18:06.738Z,42.60
2023-05-08T16:23:08.995Z,42.32
2023-05-08T16:28:10.763Z,42.49
2023-05-08T16:33:12.735Z,43.06
2023-05-08T16:38:14.592Z,42.97
2023-05-08T16:43:16.439Z,43.07
2023-05-08T16:48:18.236Z,43.47
2023-05-08T16:53:20.146Z,43.43
2023-05-08T16:58:22.997Z,43.62
2023-05-08T17:03:25.151Z,43.78
2023-05-08T17:08:27.122Z,43.77
2023-05-08T17:13:29.182Z,44.00
2023-05-08T17:18:31.337Z,44.09
2023-05-08T17:23:33.228Z,43.93
2023-05-08T17:28:35.104Z,44.05
2023-05-08T17:33:37.896Z,44.25
2023-05-08T17:38:46.125Z,44.42
2023-05-08T17:43:48.045Z,44.85
2023-05-08T17:48:50.146Z,45.10
2023-05-08T17:53:53.186Z,45.04
2023-05-08T17:58:55.699Z,45.46
2023-05-08T18:03:57.596Z,45.37
2023-05-08T18:08:59.375Z,45.51
2023-05-08T18:14:01.220Z,45.59
2023-05-08T18:19:02.976Z,45.77
2023-05-08T18:24:05.814Z,45.85
2023-05-08T18:29:07.958Z,45.89
2023-05-08T18:34:09.827Z,46.22
2023-05-08T18:39:11.912Z,46.38
2023-05-08T18:44:15.010Z,46.48
2023-05-08T18:49:16.919Z,46.66
2023-05-08T18:54:18.978Z,47.06
2023-05-08T18:59:21.599Z,47.23
2023-05-08T19:04:23.474Z,47.19
2023-05-08T19:09:25.481Z,47.27
2023-05-08T19:14:27.391Z,47.28
2023-05-08T19:19:29.691Z,47.35
2023-05-08T19:24:31.982Z,47.28
2023-05-08T19:29:35.465Z,47.39
2023-05-08T19:34:39.783Z,47.54
2023-05-08T19:39:44.518Z,47.69
2023-05-08T19:44:46.428Z,47.74
2023-05-08T19:49:49.350Z,48.03
2023-05-08T19:54:51.158Z,47.97
2023-05-08T19:59:53.239Z,48.33
2023-05-08T20:05:21.273Z,48.59
2023-05-08T20:10:16.870Z,48.68
2023-05-08T20:15:18.783Z,48.83
2023-05-08T20:20:21.841Z,48.89
2023-05-08T20:25:23.917Z,48.96
2023-05-08T20:30:25.984Z,49.02
2023-05-08T20:35:27.977Z,49.08
2023-05-08T20:40:29.916Z,48.98
2023-05-08T20:45:31.771Z,49.18
2023-05-08T20:50:33.627Z,49.22
2023-05-08T20:55:35.487Z,49.36
2023-05-08T21:00:37.317Z,49.40
2023-05-08T21:05:39.146Z,49.59
2023-05-08T21:10:41.032Z,49.49
2023-05-08T21:15:42.816Z,49.95
2023-05-08T21:20:50.471Z,50.15
2023-05-08T21:25:53.136Z,50.38
2023-05-08T21:30:54.855Z,50.37
2023-05-08T21:35:56.642Z,50.54
2023-05-08T21:41:08.415Z,50.35
2023-05-08T21:46:10.380Z,50.16
2023-05-08T21:51:12.346Z,50.17
2023-05-08T21:56:14.214Z,50.07
2023-05-08T22:01:16.192Z,49.88
2023-05-08T22:06:17.988Z,49.76
2023-05-08T22:11:19.730Z,49.65
2023-05-08T22:16:21.582Z,49.47
2023-05-08T22:21:23.421Z,49.41
2023-05-08T22:26:25.297Z,49.44
2023-05-08T22:31:27.131Z,49.35
2023-05-08T22:36:29.289Z,49.38
2023-05-08T22:41:31.222Z,49.19
2023-05-08T22:46:34.385Z,49.14
2023-05-08T22:51:36.727Z,49.11
2023-05-08T22:56:38.587Z,48.99
2023-05-08T23:01:40.535Z,49.10
2023-05-08T23:06:42.408Z,49.04
2023-05-08T23:11:44.256Z,49.00
2023-05-08T23:16:46.323Z,49.05
2023-05-08T23:21:48.242Z,49.15
2023-05-08T23:26:52.544Z,49.02
2023-05-08T23:31:54.530Z,48.95
2023-05-08T23:36:56.363Z,49.00
2023-05-08T23:41:58.184Z,48.93
2023-05-08T23:47:00.126Z,48.99
2023-05-08T23:52:02.196Z,49.05
2023-05-08T23:57:04.145Z,49.25
